Data for 09/17/2010

Time Sea-Level Adjusted Pressure Absolute Pressure Temperature Relative Humidity Dew Point   
(mb) (inHg) (mb) (inHg) (C) (F) (%) (C) (F)
00:05 1020 30.12 849 25.07 12.7 54.8 76 8.5 47.4
00:10 1020 30.12 849 25.07 12.6 54.6 80 9.2 48.6
00:15 1020 30.12 849 25.07 12.3 54.1 81 9.2 48.5
00:20 1020 30.12 849 25.07 12 53.6 82 9 48.2
00:25 1020 30.12 849 25.07 11.7 53.1 83 9 48.3
00:30 1020 30.12 849 25.07 11.4 52.5 84 8.8 47.9
00:35 1020 30.12 849 25.07 11.2 52.1 86 8.9 48
00:40 1020 30.12 849 25.07 11.1 51.9 86 8.8 47.8
00:45 1020 30.12 849 25.07 11.1 52 87 9 48.1
00:50 1020 30.12 849 25.07 11.1 51.9 87 9.1 48.3
00:55 1020 30.12 849 25.07 11.2 52.2 85 8.8 47.9
01:00 1020 30.12 849 25.07 11.6 52.8 85 9.1 48.3
01:05 1020 30.12 849 25.07 11.8 53.3 83 9.1 48.3
01:10 1020 30.12 849 25.07 11.8 53.3 84 9.2 48.6
01:15 1020 30.12 849 25.07 11.5 52.8 86 9.4 48.8
01:20 1020 30.12 849 25.07 11.4 52.6 89 9.7 49.5
01:25 1020 30.12 849 25.07 11.1 52.1 90 9.5 49.1
01:30 1020 30.12 849 25.07 11.1 51.9 89 9.3 48.8
01:35 1020 30.12 849 25.07 11.1 51.9 88 9.2 48.5
01:40 1020 30.12 849 25.07 11.2 52.1 87 9.1 48.5
01:45 1020 30.12 849 25.07 11.2 52.1 87 9.1 48.4
01:50 1020 30.12 849 25.07 11.1 52.1 87 9 48.3
01:55 1020 30.12 849 25.07 11.1 52 88 9.2 48.5
02:00 1020 30.12 849 25.07 11.1 51.9 87 9 48.1
02:05 1020 30.12 849 25.07 11.1 51.9 87 9.1 48.3
02:10 1020 30.12 849 25.07 11 51.8 88 9.2 48.5
02:15 1020 30.12 849 25.07 11 51.8 88 9 48.2
02:20 1020 30.12 849 25.07 11.1 52 87 9.1 48.4
02:25 1020 30.12 849 25.07 11.1 52 88 9.2 48.5
02:30 1020 30.12 849 25.07 11.1 51.9 88 9.2 48.6
02:35 1020 30.12 849 25.07 11.1 52.1 88 9.2 48.6
02:40 1020 30.12 849 25.07 11.1 52 90 9.4 49
02:45 1020 30.12 849 25.07 11.1 51.9 88 9.2 48.6
02:50 1020 30.12 849 25.07 11.2 52.1 90 9.5 49.2
02:55 1020 30.12 849 25.07 11.3 52.3 90 9.7 49.4
03:00 1020 30.12 849 25.07 11.3 52.3 87 9.2 48.6
03:05 1020 30.12 849 25.07 11.3 52.4 88 9.4 48.9
03:10 1020 30.12 849 25.07 11.2 52.1 89 9.5 49.1
03:15 1020 30.12 849 25.07 11.2 52.2 90 9.6 49.3
03:20 1020 30.12 849 25.07 11 51.8 91 9.6 49.2
03:25 1020 30.12 849 25.07 10.9 51.6 91 9.6 49.2
03:30 1019 30.09 849 25.07 10.8 51.5 92 9.5 49.1
03:35 1019 30.09 849 25.07 10.8 51.4 91 9.4 48.8
03:40 1019 30.09 848 25.04 10.9 51.6 90 9.4 48.8
03:45 1019 30.09 848 25.04 10.9 51.6 90 9.3 48.8
03:50 1019 30.09 848 25.04 10.9 51.6 90 9.4 48.8
03:55 1019 30.09 848 25.04 10.9 51.6 90 9.3 48.7
04:00 1019 30.09 848 25.04 10.9 51.7 89 9.2 48.6
04:05 1019 30.09 849 25.07 11 51.8 88 9.1 48.4
04:10 1019 30.09 849 25.07 11.1 51.9 87 9.1 48.3
04:15 1019 30.09 849 25.07 11 51.7 88 9 48.2
04:20 1019 30.09 848 25.04 11 51.7 87 8.9 48
04:25 1019 30.09 848 25.04 11.1 51.9 87 9 48.1
04:30 1019 30.09 848 25.04 11.1 52 86 8.8 47.9
04:35 1019 30.09 848 25.04 11 51.9 86 8.8 47.9
04:40 1019 30.09 848 25.04 11 51.8 86 8.8 47.8
04:45 1019 30.09 849 25.07 10.9 51.7 86 8.7 47.6
04:50 1019 30.09 849 25.07 11 51.8 85 8.7 47.6
04:55 1019 30.09 849 25.07 11.1 52 84 8.5 47.3
05:00 1019 30.09 849 25.07 11.2 52.2 84 8.6 47.5
05:05 1019 30.09 848 25.04 11.2 52.1 84 8.5 47.4
05:10 1019 30.09 848 25.04 11.1 52 85 8.6 47.6
05:15 1019 30.09 849 25.07 11.1 51.9 85 8.7 47.7
05:20 1019 30.09 849 25.07 11 51.9 85 8.7 47.6
05:25 1019 30.09 849 25.07 11 51.8 85 8.6 47.5
05:30 1019 30.09 849 25.07 10.9 51.5 87 8.9 47.9
05:35 1019 30.09 849 25.07 10.7 51.3 90 9.1 48.3
05:40 1019 30.09 849 25.07 10.5 50.9 90 9 48.2
05:45 1020 30.12 849 25.07 10.4 50.7 92 9.1 48.3
05:50 1020 30.12 849 25.07 10.3 50.5 92 9.1 48.4
05:55 1020 30.12 849 25.07 10.2 50.3 93 9 48.3
06:00 1020 30.12 849 25.07 10.1 50.1 94 9.1 48.4
06:05 1020 30.12 849 25.07 10.1 50.2 94 9.2 48.5
06:10 1020 30.12 849 25.07 10.2 50.3 94 9.2 48.6
06:15 1020 30.12 849 25.07 10.2 50.3 93 9.1 48.5
06:20 1020 30.12 849 25.07 10.1 50.1 94 9.1 48.3
06:25 1020 30.12 849 25.07 10.1 50.2 94 9.1 48.4
06:30 1020 30.12 849 25.07 10.3 50.5 93 9.1 48.4
06:35 1020 30.12 849 25.07 10.4 50.7 91 9 48.3
06:40 1020 30.12 849 25.07 10.4 50.8 91 9 48.2
06:45 1020 30.12 849 25.07 10.4 50.7 91 8.9 48.1
06:50 1020 30.12 849 25.07 10.4 50.7 90 8.8 47.9
06:55 1020 30.12 849 25.07 10.2 50.3 91 8.7 47.7
07:00 1020 30.12 849 25.07 10.1 50.1 91 8.7 47.7
07:05 1020 30.12 849 25.07 10 49.9 92 8.7 47.6
07:10 1020 30.12 849 25.07 9.8 49.7 92 8.6 47.5
07:15 1020 30.12 849 25.07 9.7 49.5 92 8.5 47.4
07:20 1020 30.12 849 25.07 9.7 49.4 92 8.5 47.3
07:25 1020 30.12 849 25.07 9.6 49.2 93 8.4 47.2
07:30 1020 30.12 849 25.07 9.4 49 93 8.4 47.1
07:35 1020 30.12 849 25.07 9.4 48.9 93 8.4 47.1
07:40 1020 30.12 849 25.07 9.4 49 93 8.4 47.1
07:45 1020 30.12 849 25.07 9.5 49 93 8.5 47.2
07:50 1020 30.12 849 25.07 9.6 49.3 93 8.6 47.5
07:55 1020 30.12 849 25.07 9.7 49.5 93 8.7 47.6
08:00 1020 30.12 849 25.07 9.8 49.7 94 8.9 48
08:05 1020 30.12 849 25.07 9.9 49.8 93 8.9 48
08:10 1020 30.12 849 25.07 9.9 49.8 94 8.9 48
08:15 1020 30.12 849 25.07 9.9 49.7 94 8.9 47.9
08:20 1020 30.12 849 25.07 9.8 49.6 94 8.8 47.8
08:25 1020 30.12 849 25.07 9.8 49.6 93 8.7 47.7
08:30 1020 30.12 849 25.07 9.7 49.5 90 8.2 46.8
08:35 1020 30.12 849 25.07 9.4 48.9 91 7.9 46.3
08:40 1020 30.12 849 25.07 9.3 48.7 89 7.5 45.6
08:45 1020 30.12 850 25.1 9.2 48.5 89 7.4 45.3
08:50 1020 30.12 850 25.1 9 48.3 87 7.1 44.7
08:55 1020 30.12 849 25.07 8.9 48 88 7 44.6
09:00 1020 30.12 850 25.1 8.9 47.9 88 7 44.6
09:05 1020 30.12 849 25.07 9.1 48.3 88 7.1 44.8
09:10 1020 30.12 849 25.07 9.3 48.8 85 7 44.5
09:15 1020 30.12 849 25.07 9.4 49 83 6.7 44
09:20 1020 30.12 849 25.07 9.5 49.1 84 7 44.5
09:25 1020 30.12 849 25.07 9.2 48.5 84 6.7 44.1
09:30 1020 30.12 849 25.07 9 48.2 85 6.6 43.8
09:35 1020 30.12 849 25.07 9 48.1 84 6.4 43.6
09:40 1020 30.12 849 25.07 9.1 48.4 83 6.4 43.4
09:45 1020 30.12 849 25.07 9.2 48.5 80 6 42.8
09:50 1020 30.12 849 25.07 9.2 48.5 80 5.9 42.6
09:55 1020 30.12 849 25.07 8.9 48.1 80 5.8 42.4
10:00 1020 30.12 849 25.07 8.9 47.9 80 5.7 42.2
10:05 1020 30.12 849 25.07 9 48.2 80 5.7 42.3
10:10 1020 30.12 849 25.07 9 48.3 78 5.5 41.8
10:15 1020 30.12 850 25.1 9.1 48.5 78 5.6 42.1
10:20 1020 30.12 850 25.1 9.4 48.8 77 5.6 42
10:25 1020 30.12 849 25.07 9.5 49.1 76 5.5 42
10:30 1020 30.12 849 25.07 9.7 49.5 76 5.7 42.3
10:35 1020 30.12 850 25.1 9.9 49.8 73 5.3 41.5
10:40 1020 30.12 850 25.1 9.7 49.5 75 5.6 42.1
10:45 1020 30.12 849 25.07 9.6 49.3 75 5.5 41.9
10:50 1020 30.12 849 25.07 9.6 49.4 74 5.3 41.5
10:55 1020 30.12 849 25.07 9.5 49.2 75 5.3 41.6
11:00 1020 30.12 849 25.07 9.5 49.1 75 5.2 41.4
11:05 1020 30.12 849 25.07 9.9 49.7 74 5.4 41.7
11:10 1020 30.12 850 25.1 10.1 50.2 74 5.6 42.1
11:15 1020 30.12 849 25.07 9.6 49.3 74 5.3 41.5
11:20 1020 30.12 850 25.1 9.4 48.9 75 5.1 41.2
11:25 1020 30.12 850 25.1 9.3 48.7 74 5 41
11:30 1020 30.12 849 25.07 9.6 49.3 73 5 41.1
11:35 1020 30.12 849 25.07 9.5 49.1 73 4.9 40.8
11:40 1020 30.12 849 25.07 9.6 49.3 72 4.9 40.8
11:45 1020 30.12 850 25.1 9.4 49 74 5 41
11:50 1020 30.12 850 25.1 9.6 49.3 72 4.9 40.9
11:55 1020 30.12 850 25.1 9.7 49.5 72 4.9 40.8
12:00 1020 30.12 850 25.1 9.8 49.7 73 5.2 41.4
12:05 1020 30.12 849 25.07 9.9 49.8 72 5.1 41.2
12:10 1020 30.12 849 25.07 10.3 50.6 70 5.2 41.3
12:15 1020 30.12 849 25.07 10.5 50.8 70 5.2 41.4
12:20 1020 30.12 850 25.1 9.8 49.7 72 5 40.9
12:25 1020 30.12 849 25.07 9.5 49.1 73 4.9 40.7
12:30 1020 30.12 849 25.07 9.3 48.8 73 4.8 40.6
12:35 1020 30.12 850 25.1 9.5 49.2 72 4.8 40.6
12:40 1020 30.12 849 25.07 9.3 48.7 73 4.7 40.4
12:45 1020 30.12 849 25.07 9.1 48.4 74 4.7 40.4
12:50 1020 30.12 849 25.07 9.3 48.7 72 4.5 40.2
12:55 1020 30.12 849 25.07 9.4 48.9 71 4.5 40
13:00 1020 30.12 849 25.07 9.4 49 70 4.3 39.7
13:05 1020 30.12 849 25.07 9.5 49.1 70 4.4 39.9
13:10 1020 30.12 849 25.07 9.6 49.3 70 4.4 39.9
13:15 1020 30.12 849 25.07 9.6 49.2 71 4.5 40.1
13:20 1020 30.12 849 25.07 9.6 49.3 70 4.4 39.8
13:25 1020 30.12 849 25.07 9.6 49.3 70 4.4 39.9
13:30 1020 30.12 849 25.07 9.8 49.6 69 4.3 39.8
13:35 1020 30.12 849 25.07 9.8 49.6 68 4.2 39.6
13:40 1020 30.12 849 25.07 9.4 49 70 4.2 39.6
13:45 1020 30.12 849 25.07 9.3 48.7 70 4.2 39.6
13:50 1020 30.12 849 25.07 9.4 48.9 69 4 39.3
13:55 1020 30.12 850 25.1 9.5 49.1 68 4 39.2
14:00 1020 30.12 850 25.1 9.3 48.7 70 4.1 39.3
14:05 1020 30.12 850 25.1 8.9 48.1 71 4 39.2
14:10 1020 30.12 850 25.1 8.8 47.9 70 3.7 38.6
14:15 1020 30.12 850 25.1 8.9 47.9 70 3.8 38.8
14:20 1020 30.12 850 25.1 8.6 47.4 72 3.8 38.8
14:25 1020 30.12 850 25.1 8.5 47.3 72 3.7 38.6
14:30 1020 30.12 850 25.1 8.3 47 73 3.8 38.8
14:35 1020 30.12 850 25.1 8.4 47.1 71 3.5 38.4
14:40 1020 30.12 850 25.1 8.1 46.6 73 3.6 38.5
14:45 1020 30.12 850 25.1 8.1 46.6 73 3.6 38.5
14:50 1020 30.12 850 25.1 8.1 46.5 74 3.7 38.7
14:55 1021 30.15 850 25.1 7.8 46.1 74 3.5 38.4
15:00 1020 30.12 850 25.1 7.8 46 74 3.5 38.2
15:05 1021 30.15 850 25.1 7.7 45.8 74 3.4 38.1
15:10 1021 30.15 850 25.1 7.5 45.5 74 3.2 37.7
15:15 1021 30.15 850 25.1 7.4 45.3 75 3.3 37.9
15:20 1021 30.15 850 25.1 7.3 45.1 75 3.2 37.8
15:25 1021 30.15 850 25.1 7.4 45.3 74 3.1 37.6
15:30 1021 30.15 850 25.1 7.3 45.2 75 3.2 37.7
15:35 1021 30.15 850 25.1 7 44.6 75 2.9 37.2
15:40 1021 30.15 850 25.1 7 44.7 75 2.8 37.1
15:45 1021 30.15 850 25.1 6.9 44.3 74 2.6 36.8
15:50 1021 30.15 850 25.1 6.8 44.2 74 2.5 36.5
15:55 1021 30.15 850 25.1 6.7 44 74 2.4 36.3
16:00 1021 30.15 850 25.1 6.7 44 74 2.3 36.2
16:05 1020 30.12 850 25.1 6.7 44 74 2.4 36.4
16:10 1021 30.15 850 25.1 6.6 43.9 75 2.4 36.4
16:15 1021 30.15 850 25.1 6.6 43.9 75 2.5 36.5
16:20 1021 30.15 850 25.1 6.5 43.7 75 2.3 36.2
16:25 1021 30.15 850 25.1 6.4 43.5 74 2 35.6
16:30 1021 30.15 850 25.1 6.3 43.4 74 2 35.7
16:35 1021 30.15 850 25.1 6.3 43.4 74 2 35.6
16:40 1021 30.15 850 25.1 6.3 43.3 74 2 35.5
16:45 1020 30.12 850 25.1 6.2 43.1 73 1.8 35.2
16:50 1021 30.15 850 25.1 6.1 42.9 74 1.8 35.2
16:55 1021 30.15 850 25.1 5.9 42.5 75 1.8 35.2
17:00 1021 30.15 850 25.1 5.9 42.6 75 1.8 35.2
17:05 1021 30.15 850 25.1 5.7 42.3 76 1.9 35.4
17:10 1021 30.15 850 25.1 5.5 42 76 1.7 35.1
17:15 1021 30.15 850 25.1 5.5 41.9 76 1.7 35
17:20 1021 30.15 850 25.1 5.4 41.7 78 1.9 35.4
17:25 1021 30.15 850 25.1 5.3 41.6 77 1.6 34.9
17:30 1021 30.15 850 25.1 5.2 41.4 79 1.8 35.2
17:35 1021 30.15 851 25.13 5.1 41.2 78 1.6 34.8
17:40 1021 30.15 850 25.1 5 41 82 2.3 36.1
17:45 1020 30.12 850 25.1 4.6 40.3 86 2.4 36.3
17:50 1021 30.15 850 25.1 4.3 39.8 86 2.2 36
17:55 1021 30.15 850 25.1 4.3 39.7 86 2.2 35.9
18:00 1021 30.15 850 25.1 4.3 39.8 85 2 35.6
18:05 1021 30.15 850 25.1 4.4 39.9 83 1.8 35.3
18:10 1021 30.15 850 25.1 4.4 39.8 83 1.7 35.1
18:15 1021 30.15 850 25.1 4.4 39.9 83 1.7 35
18:20 1021 30.15 850 25.1 4.4 40 82 1.7 35
18:25 1021 30.15 851 25.13 4.5 40 83 1.8 35.2
18:30 1021 30.15 850 25.1 4.3 39.7 82 1.5 34.7
18:35 1021 30.15 850 25.1 4.2 39.6 83 1.6 34.9
18:40 1021 30.15 850 25.1 4.2 39.5 83 1.5 34.8
18:45 1021 30.15 850 25.1 4 39.1 82 1.2 34.1
18:50 1021 30.15 850 25.1 3.9 39 82 1.1 33.9
18:55 1021 30.15 850 25.1 3.8 38.8 83 1.1 34
19:00 1021 30.15 850 25.1 3.8 38.8 83 1.2 34.1
19:05 1021 30.15 850 25.1 3.8 38.8 82 1.1 33.9
19:10 1021 30.15 850 25.1 3.8 38.8 82 1.1 33.9
19:15 1021 30.15 851 25.13 3.7 38.7 83 1 33.9
19:20 1021 30.15 851 25.13 3.7 38.6 83 1 33.8
19:25 1021 30.15 851 25.13 3.6 38.5 83 0.9 33.7
19:30 1021 30.15 851 25.13 3.6 38.5 83 1 33.7
19:35 1021 30.15 851 25.13 3.6 38.5 82 0.9 33.6
19:40 1022 30.18 851 25.13 3.6 38.5 82 0.8 33.4
19:45 1022 30.18 851 25.13 3.7 38.7 81 0.8 33.5
19:50 1022 30.18 851 25.13 3.7 38.6 82 0.9 33.6
19:55 1022 30.18 852 25.16 3.6 38.5 82 0.8 33.4
20:00 1022 30.18 852 25.16 3.6 38.4 82 0.8 33.4
20:05 1023 30.21 852 25.16 3.5 38.4 83 1 33.8
20:10 1023 30.21 852 25.16 3.5 38.2 84 0.9 33.7
20:15 1022 30.18 852 25.16 3.4 38.1 83 0.7 33.3
20:20 1023 30.21 852 25.16 3.4 38.1 83 0.7 33.3
20:25 1022 30.18 851 25.13 3.4 38 83 0.7 33.2
20:30 1021 30.15 850 25.1 3.3 37.9 82 0.4 32.8
20:35 1021 30.15 850 25.1 3.4 38.1 80 0.4 32.6
20:40 1021 30.15 851 25.13 3.4 38 81 0.5 32.8
20:45 1021 30.15 851 25.13 3.3 37.9 81 0.4 32.7
20:50 1021 30.15 851 25.13 3.3 37.9 81 0.4 32.6
20:55 1021 30.15 851 25.13 3.3 38 81 0.4 32.7
21:00 1022 30.18 851 25.13 3.3 38 80 0.2 32.4
21:05 1022 30.18 851 25.13 3.5 38.3 79 0.1 32.2
21:10 1023 30.21 852 25.16 3.6 38.5 79 0.3 32.6
21:15 1023 30.21 852 25.16 3.5 38.3 80 0.4 32.6
21:20 1024 30.24 853 25.19 3.6 38.4 81 0.5 33
21:25 1023 30.21 852 25.16 3.5 38.3 85 1.3 34.3
21:30 1022 30.18 852 25.16 3.1 37.6 87 1.1 34
21:35 1022 30.18 852 25.16 2.9 37.2 89 1.3 34.3
21:40 1022 30.18 851 25.13 2.7 36.8 90 1.2 34.1
21:45 1021 30.15 850 25.1 2.5 36.6 91 1.2 34.1
21:50 1020 30.12 849 25.07 2.5 36.5 91 1.2 34.2
21:55 1020 30.12 850 25.1 2.4 36.4 91 1.2 34.1
22:00 1021 30.15 850 25.1 2.4 36.3 90 1 33.8
22:05 1021 30.15 851 25.13 2.4 36.4 90 1 33.8
22:10 1021 30.15 850 25.1 2.6 36.7 89 1 33.7
22:15 1020 30.12 849 25.07 2.9 37.2 88 1 33.9
22:20 1020 30.12 849 25.07 3.2 37.8 86 1.1 33.9
22:25 1020 30.12 849 25.07 3.1 37.6 86 1 33.8
22:30 1020 30.12 850 25.1 3 37.4 85 0.8 33.4
22:35 1021 30.15 850 25.1 3 37.4 86 0.8 33.5
22:40 1021 30.15 850 25.1 3 37.4 84 0.6 33.1
22:45 1021 30.15 850 25.1 3.1 37.6 85 0.8 33.4
22:50 1021 30.15 850 25.1 3.1 37.6 85 0.9 33.6
22:55 1021 30.15 851 25.13 3.1 37.6 84 0.7 33.2
23:00 1021 30.15 851 25.13 3.1 37.6 85 0.8 33.5
23:05 1022 30.18 851 25.13 3.1 37.5 85 0.8 33.4
23:10 1021 30.15 851 25.13 3.1 37.5 85 0.8 33.4
23:15 1021 30.15 851 25.13 3 37.5 85 0.8 33.5
23:20 1021 30.15 851 25.13 3 37.4 85 0.8 33.4
23:25 1021 30.15 851 25.13 2.9 37.3 86 0.8 33.4
23:30 1022 30.18 851 25.13 2.9 37.2 85 0.7 33.2
23:35 1022 30.18 851 25.13 2.8 37 86 0.6 33.1
23:40 1022 30.18 851 25.13 2.6 36.7 86 0.5 32.9
23:45 1022 30.18 851 25.13 2.5 36.5 86 0.4 32.8
23:50 1022 30.18 851 25.13 2.4 36.4 86 0.3 32.5
23:55 1021 30.15 851 25.13 2.4 36.3 85 0.1 32.2
24:00 1021 30.15 851 25.13 2.3 36.1 86 0.1 32.2